Terminal Aerodrome Forecast
Issued by NWS Topeka, KS

Home | Current Version | Previous Version | Graphics & Text | Print | Product List | Glossary On
Versions: 1 2 3 4 5 6 7 8 9 10 11 12 13 14 15 16 17 18 19
000
FTUS43 KTOP 271120
TAFTOP
TAF
KTOP 271120Z 2712/2812 28005KT P6SM FEW200
     FM272000 17004KT P6SM BKN200
     FM280100 14005KT P6SM VCSH OVC070
     FM280600 08008KT 6SM SHRA OVC020
     FM280900 09011KT 3SM SHRA BR OVC008=

USA.gov is the U.S. government's official web portal to all federal, state and local government web resources and services.